createdAt,value
2019-06-01T00:01:49.599Z,26.27
2019-06-01T00:04:19.017Z,25.25
2019-06-01T00:06:49.392Z,30.03
2019-06-01T00:09:20.242Z,26.03
2019-06-01T00:11:50.026Z,24.33
2019-06-01T00:14:20.103Z,24.10
2019-06-01T00:16:50.390Z,26.03
2019-06-01T00:19:20.294Z,22.77
2019-06-01T00:21:52.308Z,23.03
2019-06-01T00:24:22.866Z,24.40
2019-06-01T00:26:52.271Z,22.90
2019-06-01T00:29:23.439Z,29.90
2019-06-01T00:31:53.544Z,46.97
2019-06-01T00:34:24.663Z,40.44
2019-06-01T00:36:55.064Z,40.75
2019-06-01T00:39:24.559Z,31.15
2019-06-01T00:41:54.030Z,30.40
2019-06-01T00:44:23.650Z,29.60
2019-06-01T00:46:54.353Z,29.65
2019-06-01T00:49:23.784Z,29.27
2019-06-01T00:51:53.795Z,28.10
2019-06-01T00:54:23.295Z,26.87
2019-06-01T00:56:53.888Z,28.77
2019-06-01T00:59:24.097Z,27.70
2019-06-01T01:01:54.235Z,23.07
2019-06-01T01:04:24.145Z,24.32
2019-06-01T01:06:54.686Z,24.40
2019-06-01T01:09:25.027Z,28.73
2019-06-01T01:11:55.314Z,29.80
2019-06-01T01:14:25.209Z,26.30
2019-06-01T01:16:55.676Z,30.40
2019-06-01T01:19:25.163Z,27.43
2019-06-01T01:21:56.405Z,30.03
2019-06-01T01:24:27.956Z,29.07
2019-06-01T01:26:57.292Z,27.37
2019-06-01T01:29:26.702Z,27.93
2019-06-01T01:31:57.316Z,26.68
2019-06-01T01:34:32.047Z,28.37
2019-06-01T01:37:02.006Z,30.37
2019-06-01T01:39:31.780Z,29.30
2019-06-01T01:42:01.188Z,30.47
2019-06-01T01:44:30.966Z,40.27
2019-06-01T01:47:02.498Z,53.70
2019-06-01T01:49:31.968Z,42.33
2019-06-01T01:52:05.373Z,34.90
2019-06-01T01:54:35.555Z,28.45
2019-06-01T01:57:07.194Z,26.47
2019-06-01T01:59:36.047Z,24.73
2019-06-01T02:02:05.482Z,22.27
2019-06-01T02:04:35.369Z,22.35
2019-06-01T02:07:06.455Z,23.27
2019-06-01T02:09:39.145Z,24.03
2019-06-01T02:12:09.324Z,29.60
2019-06-01T02:14:39.889Z,26.10
2019-06-01T02:17:09.316Z,31.20
2019-06-01T02:19:39.117Z,29.70
2019-06-01T02:22:08.504Z,28.30
2019-06-01T02:24:37.940Z,29.47
2019-06-01T02:27:07.350Z,26.37
2019-06-01T02:29:37.344Z,27.03
2019-06-01T02:32:07.547Z,33.70
2019-06-01T02:34:38.309Z,24.73
2019-06-01T02:37:08.798Z,33.47
2019-06-01T02:39:40.300Z,23.47
2019-06-01T02:42:11.277Z,27.63
2019-06-01T02:44:41.531Z,33.03
2019-06-01T02:47:11.634Z,30.03
2019-06-01T02:49:41.025Z,26.03
2019-06-01T02:52:10.418Z,32.43
2019-06-01T02:54:40.235Z,28.07
2019-06-01T02:57:10.505Z,28.83
2019-06-01T02:59:39.952Z,32.27
2019-06-01T03:02:14.294Z,28.00
2019-06-01T03:04:42.234Z,24.47
2019-06-01T03:07:13.446Z,21.97
2019-06-01T03:09:45.360Z,24.70
2019-06-01T03:12:18.358Z,25.32
2019-06-01T03:14:49.850Z,23.20
2019-06-01T03:17:22.188Z,20.65
2019-06-01T03:19:57.826Z,21.40
2019-06-01T03:22:28.280Z,21.62
2019-06-01T03:25:01.909Z,20.13
2019-06-01T03:27:35.060Z,20.60
2019-06-01T03:30:09.834Z,21.10
2019-06-01T03:32:39.306Z,22.87
2019-06-01T03:35:08.948Z,21.67
2019-06-01T03:37:39.057Z,22.83
2019-06-01T03:40:21.721Z,22.27
2019-06-01T03:42:41.734Z,19.97
2019-06-01T03:45:12.853Z,24.15
2019-06-01T03:47:43.168Z,24.07
2019-06-01T03:50:13.361Z,22.53
2019-06-01T03:52:43.386Z,20.50
2019-06-01T03:55:13.658Z,22.73
2019-06-01T03:57:43.056Z,20.30
2019-06-01T04:00:13.330Z,17.12
2019-06-01T04:02:43.539Z,19.60
2019-06-01T04:05:13.937Z,17.70
2019-06-01T04:07:45.169Z,19.40
2019-06-01T04:10:15.948Z,16.27
2019-06-01T04:12:45.360Z,16.77
2019-06-01T04:15:16.884Z,15.70
2019-06-01T04:17:46.773Z,16.87
2019-06-01T04:20:18.153Z,16.73
2019-06-01T04:22:48.041Z,18.00
2019-06-01T04:25:19.359Z,17.65
2019-06-01T04:27:48.689Z,16.77
2019-06-01T04:30:19.923Z,17.50
2019-06-01T04:32:50.642Z,16.17
2019-06-01T04:35:20.098Z,17.95
2019-06-01T04:37:49.879Z,18.40
2019-06-01T04:40:19.281Z,19.57
2019-06-01T04:42:49.557Z,18.33
2019-06-01T04:45:22.945Z,20.90
2019-06-01T04:47:52.964Z,18.90
2019-06-01T04:50:22.344Z,19.07
2019-06-01T04:52:52.297Z,18.97
2019-06-01T04:55:22.380Z,17.50
2019-06-01T04:57:54.184Z,16.17
2019-06-01T05:00:27.701Z,17.87
2019-06-01T05:03:04.874Z,16.87
2019-06-01T05:05:26.489Z,16.17
2019-06-01T05:07:57.276Z,15.50
2019-06-01T05:10:27.603Z,16.63
2019-06-01T05:12:56.994Z,15.60
2019-06-01T05:15:26.399Z,16.55
2019-06-01T05:17:59.139Z,16.27
2019-06-01T05:20:32.365Z,17.03
2019-06-01T05:23:01.809Z,15.10
2019-06-01T05:25:31.775Z,15.07
2019-06-01T05:28:01.229Z,14.73
2019-06-01T05:30:31.320Z,17.17
2019-06-01T05:33:01.154Z,17.00
2019-06-01T05:35:31.534Z,18.90
2019-06-01T05:38:01.484Z,15.30
2019-06-01T05:40:32.018Z,15.08
2019-06-01T05:43:02.433Z,13.70
2019-06-01T05:45:31.804Z,13.50
2019-06-01T05:48:01.369Z,13.70
2019-06-01T05:50:31.817Z,23.60
2019-06-01T05:53:01.962Z,20.97
2019-06-01T05:55:32.188Z,13.57
2019-06-01T05:58:02.190Z,13.67
2019-06-01T06:00:42.921Z,13.80
2019-06-01T06:03:16.175Z,11.30
2019-06-01T06:05:45.641Z,11.37
2019-06-01T06:08:17.972Z,10.95
2019-06-01T06:10:47.784Z,12.13
2019-06-01T06:13:19.307Z,12.10
2019-06-01T06:15:49.382Z,10.13
2019-06-01T06:18:19.811Z,9.07
2019-06-01T06:20:49.396Z,8.30
2019-06-01T06:23:18.928Z,9.50
2019-06-01T06:25:48.893Z,10.27
2019-06-01T06:28:18.799Z,10.30
2019-06-01T06:30:49.068Z,13.13
2019-06-01T06:33:19.449Z,12.17
2019-06-01T06:35:48.856Z,11.03
2019-06-01T06:38:18.245Z,9.63
2019-06-01T06:40:47.960Z,11.50
2019-06-01T06:43:23.646Z,9.47
2019-06-01T06:45:50.832Z,7.22
2019-06-01T06:48:21.264Z,6.65
2019-06-01T06:50:50.790Z,6.73
2019-06-01T06:53:28.468Z,7.90
2019-06-01T06:55:51.718Z,6.40
2019-06-01T06:58:22.439Z,6.33
2019-06-01T07:00:53.490Z,7.20
2019-06-01T07:03:23.548Z,7.42
2019-06-01T07:05:53.515Z,9.77
2019-06-01T07:08:23.885Z,6.57
2019-06-01T07:10:54.310Z,5.40
2019-06-01T07:13:23.985Z,7.10
2019-06-01T07:15:53.385Z,9.60
2019-06-01T07:18:25.652Z,7.03
2019-06-01T07:20:55.123Z,4.73
2019-06-01T07:23:25.808Z,5.72
2019-06-01T07:25:55.859Z,6.50
2019-06-01T07:28:26.203Z,7.50
2019-06-01T07:30:55.731Z,7.60
2019-06-01T07:33:26.364Z,5.45
2019-06-01T07:35:56.458Z,6.07
2019-06-01T07:38:26.788Z,6.47
2019-06-01T07:40:57.718Z,5.17
2019-06-01T07:43:27.428Z,5.50
2019-06-01T07:45:57.649Z,5.50
2019-06-01T07:48:27.182Z,5.73
2019-06-01T07:50:57.264Z,4.70
2019-06-01T07:53:27.412Z,5.80
2019-06-01T07:55:56.985Z,9.43
2019-06-01T07:58:26.761Z,5.65
2019-06-01T08:00:56.395Z,4.87
2019-06-01T08:03:28.904Z,6.00
2019-06-01T08:05:57.292Z,5.33
2019-06-01T08:08:27.349Z,4.63
2019-06-01T08:10:57.193Z,6.60
2019-06-01T08:13:31.527Z,4.20
2019-06-01T08:16:00.650Z,4.40
2019-06-01T08:18:32.344Z,4.33
2019-06-01T08:21:02.666Z,4.30
2019-06-01T08:23:32.597Z,4.70
2019-06-01T08:26:02.640Z,4.20
2019-06-01T08:28:36.592Z,4.67
2019-06-01T08:31:06.333Z,3.20
2019-06-01T08:33:41.564Z,3.77
2019-06-01T08:36:15.384Z,3.87
2019-06-01T08:38:47.645Z,10.33
2019-06-01T08:41:18.349Z,6.03
2019-06-01T08:43:47.746Z,5.70
2019-06-01T08:46:19.361Z,5.92
2019-06-01T08:48:49.022Z,14.53
2019-06-01T08:51:18.996Z,8.93
2019-06-01T08:53:49.133Z,6.90
2019-06-01T08:56:21.808Z,10.60
2019-06-01T08:58:49.619Z,12.93
2019-06-01T09:01:19.022Z,11.90
2019-06-01T09:03:48.949Z,10.10
2019-06-01T09:06:18.352Z,12.37
2019-06-01T09:08:48.070Z,5.87
2019-06-01T09:11:18.857Z,13.13
2019-06-01T09:13:52.613Z,7.10
2019-06-01T09:16:22.304Z,7.83
2019-06-01T09:18:53.226Z,8.27
2019-06-01T09:21:22.777Z,5.80
2019-06-01T09:23:52.393Z,6.45
2019-06-01T09:26:22.425Z,8.25
2019-06-01T09:28:51.823Z,6.47
2019-06-01T09:31:22.083Z,6.03
2019-06-01T09:33:52.427Z,5.37
2019-06-01T09:36:22.498Z,5.45
2019-06-01T09:38:55.416Z,4.50
2019-06-01T09:41:26.525Z,4.57
2019-06-01T09:43:55.867Z,5.23
2019-06-01T09:46:26.900Z,5.60
2019-06-01T09:48:56.478Z,5.23
2019-06-01T09:51:27.352Z,7.63
2019-06-01T09:53:58.637Z,6.50
2019-06-01T09:56:30.874Z,5.60
2019-06-01T09:59:02.456Z,6.40
2019-06-01T10:01:34.470Z,7.70
2019-06-01T10:04:03.924Z,6.00
2019-06-01T10:06:34.677Z,9.67
2019-06-01T10:09:06.322Z,8.47
2019-06-01T10:11:36.556Z,8.13
2019-06-01T10:14:06.181Z,6.83
2019-06-01T10:16:39.819Z,6.90
2019-06-01T10:19:09.593Z,6.63
2019-06-01T10:21:39.611Z,9.40
2019-06-01T10:24:12.457Z,7.70
2019-06-01T10:26:43.079Z,12.93
2019-06-01T10:29:12.566Z,10.60
2019-06-01T10:31:43.989Z,10.50
2019-06-01T10:34:13.809Z,9.67
2019-06-01T10:36:44.498Z,12.58
2019-06-01T10:39:14.551Z,10.57
2019-06-01T10:41:44.493Z,8.27
2019-06-01T10:44:14.714Z,8.47
2019-06-01T10:46:44.762Z,7.70
2019-06-01T10:49:14.214Z,7.10
2019-06-01T10:51:43.711Z,9.80
2019-06-01T10:54:13.891Z,7.10
2019-06-01T10:56:44.659Z,9.87
2019-06-01T10:59:15.535Z,7.20
2019-06-01T11:01:51.558Z,7.20
2019-06-01T11:04:22.233Z,7.70
2019-06-01T11:06:53.154Z,8.40
2019-06-01T11:09:25.651Z,9.10
2019-06-01T11:11:55.794Z,7.53
2019-06-01T11:14:25.157Z,7.13
2019-06-01T11:16:56.420Z,8.20
2019-06-01T11:19:26.269Z,8.33
2019-06-01T11:21:55.778Z,8.20
2019-06-01T11:24:25.614Z,11.74
2019-06-01T11:26:55.064Z,7.30
2019-06-01T11:29:24.859Z,8.15
2019-06-01T11:31:54.293Z,7.53
2019-06-01T11:34:24.727Z,8.13
2019-06-01T11:37:04.914Z,9.10
2019-06-01T11:39:25.213Z,9.23
2019-06-01T11:41:55.653Z,9.83
2019-06-01T11:44:25.533Z,9.93
2019-06-01T11:46:55.904Z,9.90
2019-06-01T11:49:26.133Z,9.83
2019-06-01T11:51:55.512Z,9.70
2019-06-01T11:54:24.905Z,11.63
2019-06-01T11:56:54.541Z,9.73
2019-06-01T11:59:26.759Z,13.48
2019-06-01T12:01:58.426Z,19.30
2019-06-01T12:04:28.203Z,9.43
2019-06-01T12:07:13.695Z,17.90
2019-06-01T12:09:35.711Z,20.23
2019-06-01T12:12:05.844Z,18.00
2019-06-01T12:14:36.297Z,18.03
2019-06-01T12:17:06.136Z,19.90
2019-06-01T12:19:36.513Z,10.60
2019-06-01T12:22:06.348Z,9.33
2019-06-01T12:24:38.824Z,9.17
2019-06-01T12:27:08.359Z,8.43
2019-06-01T12:29:37.792Z,13.30
2019-06-01T12:32:07.966Z,9.03
2019-06-01T12:34:39.961Z,9.30
2019-06-01T12:37:12.079Z,8.90
2019-06-01T12:39:42.336Z,8.60
2019-06-01T12:42:11.751Z,10.30
2019-06-01T12:44:45.861Z,10.33
2019-06-01T12:47:17.112Z,10.13
2019-06-01T12:49:48.291Z,9.73
2019-06-01T12:52:19.029Z,14.37
2019-06-01T12:54:49.844Z,11.53
2019-06-01T12:57:25.178Z,13.55
2019-06-01T12:59:54.696Z,12.03
2019-06-01T13:02:24.098Z,12.97
2019-06-01T13:04:53.952Z,12.20
2019-06-01T13:07:23.284Z,11.73
2019-06-01T13:09:52.921Z,11.30
2019-06-01T13:12:22.576Z,12.30
2019-06-01T13:14:52.480Z,11.50
2019-06-01T13:17:21.893Z,11.97
2019-06-01T13:19:51.633Z,12.30
2019-06-01T13:22:21.066Z,12.23
2019-06-01T13:24:51.918Z,11.70
2019-06-01T13:27:21.528Z,14.13
2019-06-01T13:29:52.134Z,13.27
2019-06-01T13:32:22.221Z,14.25
2019-06-01T13:34:51.825Z,13.50
2019-06-01T13:37:21.204Z,10.95
2019-06-01T13:39:55.994Z,12.80
2019-06-01T13:42:21.657Z,14.58
2019-06-01T13:44:51.633Z,13.95
2019-06-01T13:47:21.045Z,13.77
2019-06-01T13:49:51.890Z,15.20
2019-06-01T13:52:23.124Z,14.05
2019-06-01T13:54:52.910Z,14.57
2019-06-01T13:57:22.553Z,14.27
2019-06-01T13:59:53.018Z,11.83
2019-06-01T14:02:22.402Z,12.68
2019-06-01T14:04:52.271Z,10.60
2019-06-01T14:07:21.658Z,15.70
2019-06-01T14:09:52.209Z,13.98
2019-06-01T14:12:22.254Z,14.65
2019-06-01T14:14:53.440Z,12.07
2019-06-01T14:17:23.060Z,13.70
2019-06-01T14:19:53.796Z,13.50
2019-06-01T14:22:23.229Z,12.30
2019-06-01T14:25:08.371Z,10.07
2019-06-01T14:27:24.125Z,9.67
2019-06-01T14:29:54.431Z,8.80
2019-06-01T14:32:23.813Z,10.70
2019-06-01T14:34:53.351Z,12.10
2019-06-01T14:37:25.649Z,11.43
2019-06-01T14:39:55.283Z,10.00
2019-06-01T14:42:24.989Z,11.63
2019-06-01T14:44:58.151Z,10.53
2019-06-01T14:47:32.817Z,10.80
2019-06-01T14:50:08.852Z,9.80
2019-06-01T14:52:43.950Z,8.30
2019-06-01T14:55:19.160Z,9.23
2019-06-01T14:57:55.989Z,9.63
2019-06-01T15:00:25.413Z,13.23
2019-06-01T15:02:54.808Z,9.13
2019-06-01T15:05:27.728Z,9.53
2019-06-01T15:07:57.552Z,11.35
2019-06-01T15:10:28.548Z,9.05
2019-06-01T15:13:02.662Z,9.33
2019-06-01T15:15:29.289Z,9.00
2019-06-01T15:17:58.708Z,9.00
2019-06-01T15:20:28.416Z,9.93
2019-06-01T15:22:59.143Z,10.70
2019-06-01T15:25:34.845Z,9.40
2019-06-01T15:28:11.990Z,8.10
2019-06-01T15:30:41.338Z,8.67
2019-06-01T15:33:10.709Z,8.80
2019-06-01T15:35:40.368Z,7.45
2019-06-01T15:38:09.860Z,7.77
2019-06-01T15:40:39.221Z,9.90
2019-06-01T15:43:08.983Z,9.97
2019-06-01T15:45:41.225Z,8.93
2019-06-01T15:48:09.854Z,8.73
2019-06-01T15:50:45.776Z,8.53
2019-06-01T15:53:16.176Z,9.18
2019-06-01T15:55:45.577Z,8.27
2019-06-01T15:58:16.283Z,9.08
2019-06-01T16:00:46.208Z,9.07
2019-06-01T16:03:17.170Z,8.80
2019-06-01T16:05:47.250Z,9.10
2019-06-01T16:08:18.097Z,8.18
2019-06-01T16:10:47.512Z,7.87
2019-06-01T16:13:18.101Z,8.48
2019-06-01T16:15:47.497Z,8.77
2019-06-01T16:18:18.555Z,9.30
2019-06-01T16:20:48.924Z,9.93
2019-06-01T16:23:18.476Z,11.30
2019-06-01T16:25:59.687Z,9.20
2019-06-01T16:28:20.709Z,8.20
2019-06-01T16:30:54.370Z,9.00
2019-06-01T16:33:24.090Z,9.10
2019-06-01T16:35:54.842Z,9.20
2019-06-01T16:38:24.303Z,9.40
2019-06-01T16:40:55.103Z,8.53
2019-06-01T16:43:24.617Z,10.73
2019-06-01T16:45:55.481Z,12.20
2019-06-01T16:48:26.348Z,10.20
2019-06-01T16:50:56.085Z,9.73
2019-06-01T16:53:25.617Z,10.77
2019-06-01T16:55:55.830Z,10.73
2019-06-01T16:58:25.806Z,11.37
2019-06-01T17:00:56.347Z,11.80
2019-06-01T17:03:26.448Z,10.70
2019-06-01T17:05:56.649Z,11.27
2019-06-01T17:08:26.695Z,11.87
2019-06-01T17:10:56.669Z,11.40
2019-06-01T17:13:26.794Z,10.28
2019-06-01T17:15:56.846Z,9.65
2019-06-01T17:18:26.606Z,10.00
2019-06-01T17:20:57.268Z,11.30
2019-06-01T17:23:29.390Z,11.10
2019-06-01T17:25:58.453Z,12.78
2019-06-01T17:28:28.371Z,13.50
2019-06-01T17:30:58.402Z,13.37
2019-06-01T17:33:29.871Z,13.80
2019-06-01T17:36:00.610Z,10.77
2019-06-01T17:38:30.280Z,11.90
2019-06-01T17:41:00.252Z,11.57
2019-06-01T17:43:29.980Z,11.93
2019-06-01T17:46:00.462Z,11.97
2019-06-01T17:48:30.583Z,11.90
2019-06-01T17:51:02.602Z,10.57
2019-06-01T17:53:36.547Z,14.57
2019-06-01T17:56:06.129Z,12.73
2019-06-01T17:58:36.343Z,11.23
2019-06-01T18:01:06.293Z,12.27
2019-06-01T18:03:35.818Z,12.47
2019-06-01T18:06:05.812Z,16.17
2019-06-01T18:08:35.443Z,16.37
2019-06-01T18:11:05.978Z,18.07
2019-06-01T18:13:35.720Z,16.83
2019-06-01T18:16:06.254Z,15.25
2019-06-01T18:18:36.095Z,15.27
2019-06-01T18:21:08.451Z,12.40
2019-06-01T18:23:37.937Z,12.43
2019-06-01T18:26:07.265Z,10.20
2019-06-01T18:28:36.868Z,11.50
2019-06-01T18:31:06.718Z,10.53
2019-06-01T18:33:37.222Z,10.00
2019-06-01T18:36:07.599Z,10.33
2019-06-01T18:38:37.810Z,11.23
2019-06-01T18:41:15.840Z,12.82
2019-06-01T18:43:39.093Z,17.17
2019-06-01T18:46:08.566Z,17.30
2019-06-01T18:48:37.970Z,15.70
2019-06-01T18:51:08.108Z,15.60
2019-06-01T18:53:37.865Z,17.40
2019-06-01T18:56:08.168Z,15.87
2019-06-01T18:58:38.151Z,15.83
2019-06-01T19:01:08.408Z,12.67
2019-06-01T19:03:37.892Z,12.73
2019-06-01T19:06:07.674Z,13.40
2019-06-01T19:08:37.382Z,11.50
2019-06-01T19:11:06.815Z,13.57
2019-06-01T19:13:36.500Z,13.83
2019-06-01T19:16:05.945Z,13.97
2019-06-01T19:18:35.600Z,15.27
2019-06-01T19:21:06.438Z,14.27
2019-06-01T19:23:36.297Z,12.80
2019-06-01T19:26:10.148Z,13.10
2019-06-01T19:28:37.908Z,15.63
2019-06-01T19:31:07.294Z,13.83
2019-06-01T19:33:36.680Z,14.97
2019-06-01T19:36:07.019Z,13.70
2019-06-01T19:38:38.151Z,13.37
2019-06-01T19:41:07.513Z,13.73
2019-06-01T19:43:37.527Z,15.30
2019-06-01T19:46:07.662Z,15.17
2019-06-01T19:48:37.403Z,13.53
2019-06-01T19:51:08.629Z,14.60
2019-06-01T19:53:38.313Z,14.43
2019-06-01T19:56:08.764Z,14.37
2019-06-01T19:58:38.289Z,15.20
2019-06-01T20:01:08.349Z,15.33
2019-06-01T20:03:38.388Z,14.70
2019-06-01T20:06:08.315Z,16.50
2019-06-01T20:08:37.882Z,19.13
2019-06-01T20:11:08.240Z,21.30
2019-06-01T20:13:42.468Z,23.50
2019-06-01T20:16:12.356Z,23.67
2019-06-01T20:18:42.328Z,21.47
2019-06-01T20:21:12.125Z,18.80
2019-06-01T20:23:41.512Z,20.60
2019-06-01T20:26:11.423Z,20.70
2019-06-01T20:28:41.401Z,19.63
2019-06-01T20:31:16.274Z,21.90
2019-06-01T20:33:45.722Z,18.73
2019-06-01T20:36:18.118Z,22.02
2019-06-01T20:38:50.801Z,20.03
2019-06-01T20:41:22.652Z,17.95
2019-06-01T20:43:56.585Z,18.33
2019-06-01T20:46:28.187Z,18.02
2019-06-01T20:48:59.915Z,16.50
2019-06-01T20:51:32.650Z,18.02
2019-06-01T20:54:06.615Z,18.65
2019-06-01T20:56:38.791Z,17.35
2019-06-01T20:59:09.566Z,16.60
2019-06-01T21:01:48.134Z,16.97
2019-06-01T21:04:22.368Z,15.57
2019-06-01T21:06:53.544Z,17.80
2019-06-01T21:09:30.028Z,17.53
2019-06-01T21:12:03.573Z,17.40
2019-06-01T21:14:36.949Z,19.07
2019-06-01T21:17:09.882Z,22.30
2019-06-01T21:19:40.738Z,22.37
2019-06-01T21:22:12.235Z,19.48
2019-06-01T21:24:43.150Z,17.90
2019-06-01T21:27:20.770Z,16.93
2019-06-01T21:30:01.275Z,16.40
2019-06-01T21:32:31.971Z,20.00
2019-06-01T21:35:03.369Z,23.43
2019-06-01T21:37:34.107Z,23.27
2019-06-01T21:40:06.051Z,22.07
2019-06-01T21:42:38.499Z,20.83
2019-06-01T21:45:08.031Z,21.77
2019-06-01T21:47:37.528Z,19.83
2019-06-01T21:50:07.381Z,19.60
2019-06-01T21:52:37.417Z,20.60
2019-06-01T21:55:07.673Z,19.47
2019-06-01T21:57:37.370Z,19.10
2019-06-01T22:00:09.597Z,20.50
2019-06-01T22:02:39.254Z,18.60
2019-06-01T22:05:09.338Z,19.97
2019-06-01T22:07:38.802Z,18.70
2019-06-01T22:10:08.507Z,18.07
2019-06-01T22:12:37.933Z,21.10
2019-06-01T22:15:07.531Z,20.43
2019-06-01T22:17:36.924Z,20.97
2019-06-01T22:20:07.448Z,19.50
2019-06-01T22:22:37.830Z,20.17
2019-06-01T22:25:07.369Z,20.50
2019-06-01T22:27:38.503Z,19.33
2019-06-01T22:30:08.615Z,19.13
2019-06-01T22:32:38.046Z,19.60
2019-06-01T22:35:08.369Z,19.43
2019-06-01T22:37:38.352Z,19.83
2019-06-01T22:40:08.075Z,19.33
2019-06-01T22:42:37.470Z,19.33
2019-06-01T22:45:07.293Z,21.93
2019-06-01T22:47:47.684Z,25.93
2019-06-01T22:50:18.082Z,21.50
2019-06-01T22:52:47.992Z,19.50
2019-06-01T22:55:18.053Z,19.92
2019-06-01T22:57:47.440Z,19.33
2019-06-01T23:00:19.254Z,20.57
2019-06-01T23:02:48.645Z,21.17
2019-06-01T23:05:18.071Z,20.77
2019-06-01T23:07:47.492Z,19.97
2019-06-01T23:10:18.653Z,22.00
2019-06-01T23:12:48.290Z,22.60
2019-06-01T23:15:18.690Z,22.50
2019-06-01T23:17:48.381Z,21.85
2019-06-01T23:20:18.152Z,23.83
2019-06-01T23:22:47.557Z,26.00
2019-06-01T23:25:18.646Z,25.00
2019-06-01T23:27:47.980Z,28.00
2019-06-01T23:30:21.989Z,26.30
2019-06-01T23:32:51.468Z,24.77
2019-06-01T23:35:22.330Z,27.73
2019-06-01T23:37:52.968Z,23.80
2019-06-01T23:40:22.894Z,24.67
2019-06-01T23:42:52.253Z,25.00
2019-06-01T23:45:22.581Z,26.27
2019-06-01T23:47:51.974Z,25.20
2019-06-01T23:50:21.625Z,26.00
2019-06-01T23:52:51.386Z,24.90
2019-06-01T23:55:20.813Z,30.35
2019-06-01T23:57:50.194Z,23.90
